Time;durP1;ratioP1;P1;durP2;ratioP2;P2;SDS_P1;SDS_P2;PMS_P1;PMS_P2;Temp;Humidity;BMP_temperature;BMP_pressure;BME280_temperature;BME280_humidity;BME280_pressure;Samples;Min_cycle;Max_cycle;Signal;HPM_P1;HPM_P2
2022/04/17 00:02:24;;;;;;;8.98;3.95;;;14.50;99.90;;;;;;5072834;28;20040;-83
2022/04/17 00:04:50;;;;;;;7.50;3.90;;;14.30;99.90;;;;;;5073647;28;20048;-83
2022/04/17 00:07:16;;;;;;;6.80;3.50;;;14.40;99.90;;;;;;5092801;28;20034;-83
2022/04/17 00:09:41;;;;;;;6.40;4.20;;;14.30;99.90;;;;;;5091170;28;20115;-83
2022/04/17 00:12:08;;;;;;;7.13;4.10;;;14.30;99.90;;;;;;5092353;28;20028;-83
2022/04/17 00:14:34;;;;;;;7.55;4.15;;;14.30;99.90;;;;;;5092794;28;20043;-83
2022/04/17 00:16:59;;;;;;;6.53;3.78;;;14.30;99.90;;;;;;5092462;28;20067;-82
2022/04/17 00:19:25;;;;;;;12.85;4.10;;;14.30;99.90;;;;;;5092771;28;20008;-83
2022/04/17 00:21:51;;;;;;;6.43;3.72;;;14.20;99.90;;;;;;5092770;28;20532;-83
2022/04/17 00:24:16;;;;;;;8.00;4.05;;;14.20;99.90;;;;;;5090640;28;20073;-83
2022/04/17 00:26:42;;;;;;;8.25;3.70;;;14.20;99.90;;;;;;5092580;28;20138;-83
2022/04/17 00:29:07;;;;;;;7.97;3.70;;;14.10;99.90;;;;;;5099158;28;20533;-82
2022/04/17 00:31:34;;;;;;;5.15;3.60;;;14.10;99.90;;;;;;5092686;28;20036;-83
2022/04/17 00:33:59;;;;;;;6.88;3.88;;;14.00;99.90;;;;;;5092592;28;20113;-83
2022/04/17 00:36:25;;;;;;;6.65;4.25;;;14.00;99.90;;;;;;5092554;28;20486;-83
2022/04/17 00:38:51;;;;;;;8.85;4.10;;;14.00;99.90;;;;;;5091011;28;20020;-83
2022/04/17 00:41:16;;;;;;;9.00;3.70;;;13.90;99.90;;;;;;5112700;28;20028;-83
2022/04/17 00:43:48;;;;;;;7.13;4.20;;;13.90;99.90;;;;;;5112942;28;20360;-83
2022/04/17 00:46:15;;;;;;;9.27;5.32;;;14.00;99.90;;;;;;5112681;28;20458;-84
2022/04/17 00:48:41;;;;;;;20.80;9.48;;;13.90;99.90;;;;;;5111582;28;20051;-84
2022/04/17 00:51:07;;;;;;;16.35;12.18;;;13.80;99.90;;;;;;5111068;28;20030;-82
2022/04/17 00:53:35;;;;;;;17.38;12.77;;;13.80;99.90;;;;;;5111394;28;20016;-83
2022/04/17 00:56:03;;;;;;;17.98;14.55;;;13.70;99.90;;;;;;5112672;28;20102;-83
2022/04/17 00:58:30;;;;;;;23.42;14.85;;;13.60;99.90;;;;;;5112762;28;20065;-83
2022/04/17 01:00:55;;;;;;;22.98;14.57;;;13.60;99.90;;;;;;5112542;28;20036;-84
2022/04/17 01:03:21;;;;;;;21.65;15.93;;;13.50;99.90;;;;;;5101852;28;20387;-84
2022/04/17 01:05:47;;;;;;;23.08;15.95;;;13.50;99.90;;;;;;5093282;28;20024;-84
2022/04/17 01:08:14;;;;;;;21.67;16.48;;;13.40;99.90;;;;;;5089337;28;20012;-83
2022/04/17 01:10:40;;;;;;;20.63;16.52;;;13.30;99.90;;;;;;5070291;28;20032;-83
2022/04/17 01:13:09;;;;;;;20.35;14.38;;;13.30;99.90;;;;;;5074744;28;20488;-83
2022/04/17 01:15:38;;;;;;;23.80;13.73;;;13.30;99.90;;;;;;5074258;28;20496;-83
2022/04/17 01:18:04;;;;;;;20.40;13.55;;;13.30;99.90;;;;;;5078034;28;20055;-82
2022/04/17 01:20:30;;;;;;;16.23;11.75;;;13.20;99.90;;;;;;5095243;28;20502;-82
2022/04/17 01:28:27;;;;;;;11.23;7.45;;;13.30;99.90;;;;;;5095701;28;20089;-82
2022/04/17 01:30:53;;;;;;;11.95;6.60;;;13.20;99.90;;;;;;5095586;28;20543;-82
2022/04/17 01:33:19;;;;;;;8.82;6.18;;;13.20;99.90;;;;;;5095687;28;20479;-82
2022/04/17 01:35:45;;;;;;;9.05;6.07;;;13.10;99.90;;;;;;5095123;28;20024;-82
2022/04/17 01:38:11;;;;;;;12.32;6.03;;;13.10;99.90;;;;;;5095059;28;20082;-82
2022/04/17 01:40:36;;;;;;;11.90;6.45;;;13.10;99.90;;;;;;5087244;28;20032;-82
2022/04/17 01:43:10;;;;;;;11.40;5.90;;;13.10;99.90;;;;;;5073754;28;20055;-82
2022/04/17 01:45:35;;;;;;;9.43;5.22;;;13.10;99.90;;;;;;5075079;28;20024;-82
2022/04/17 01:48:01;;;;;;;6.63;5.05;;;13.20;99.90;;;;;;5074722;28;20389;-82
2022/04/17 01:50:27;;;;;;;9.13;5.57;;;13.10;99.90;;;;;;5078760;28;20020;-82
2022/04/17 01:52:59;;;;;;;16.52;6.05;;;13.10;99.90;;;;;;5094437;28;20032;-83
2022/04/17 01:55:25;;;;;;;12.85;5.38;;;13.10;99.90;;;;;;5093539;28;20055;-83
2022/04/17 01:57:51;;;;;;;7.75;5.60;;;13.10;99.90;;;;;;5095324;28;20078;-83
2022/04/17 02:00:17;;;;;;;8.93;5.60;;;13.00;99.90;;;;;;5092750;28;20052;-83
2022/04/17 02:02:43;;;;;;;8.60;4.72;;;13.00;99.90;;;;;;5094672;28;20020;-83
2022/04/17 02:05:09;;;;;;;8.18;5.18;;;13.10;99.90;;;;;;5093220;28;20545;-83
2022/04/17 02:07:36;;;;;;;10.20;4.90;;;13.00;99.90;;;;;;5093502;28;20373;-83
2022/04/17 02:10:04;;;;;;;7.95;4.75;;;13.00;99.90;;;;;;5093541;28;20501;-83
2022/04/17 02:12:29;;;;;;;9.55;4.85;;;13.00;99.90;;;;;;5094803;28;20432;-83
2022/04/17 02:14:56;;;;;;;9.90;5.30;;;12.90;99.90;;;;;;5093318;28;20028;-83
2022/04/17 02:17:22;;;;;;;10.57;5.18;;;12.90;99.90;;;;;;5093111;28;20395;-83
2022/04/17 02:19:47;;;;;;;10.13;5.20;;;12.80;99.90;;;;;;5094507;28;20039;-83
2022/04/17 02:22:13;;;;;;;6.88;4.65;;;12.80;99.90;;;;;;5094411;28;20433;-82
2022/04/17 02:24:39;;;;;;;11.77;5.32;;;12.70;99.90;;;;;;5092925;28;20479;-82
2022/04/17 02:27:04;;;;;;;11.13;4.95;;;12.80;99.90;;;;;;5094614;28;20426;-82
2022/04/17 02:29:30;;;;;;;10.63;5.35;;;12.70;99.90;;;;;;5093098;28;20059;-83
2022/04/17 02:31:56;;;;;;;11.73;5.32;;;12.70;99.90;;;;;;5098209;28;20031;-82
2022/04/17 02:34:21;;;;;;;10.55;5.38;;;12.70;99.90;;;;;;5092737;28;20032;-82
2022/04/17 02:36:47;;;;;;;8.60;5.53;;;12.70;99.90;;;;;;5092319;28;20028;-83
2022/04/17 02:39:13;;;;;;;10.82;6.13;;;12.60;99.90;;;;;;5087269;28;20024;-82
2022/04/17 02:41:38;;;;;;;10.18;5.45;;;12.70;99.90;;;;;;5113178;28;20165;-83
2022/04/17 02:44:06;;;;;;;12.45;5.22;;;12.60;99.90;;;;;;5113427;28;20039;-83
2022/04/17 02:49:16;;;;;;;10.20;5.55;;;12.50;99.90;;;;;;5108541;28;20023;-83
2022/04/17 02:51:42;;;;;;;9.23;5.15;;;12.40;99.90;;;;;;5105335;28;20028;-83
2022/04/17 02:54:07;;;;;;;10.05;5.85;;;12.40;99.90;;;;;;5114511;28;20526;-83
2022/04/17 02:56:33;;;;;;;9.85;6.03;;;12.50;99.90;;;;;;5114079;28;20478;-83
2022/04/17 02:58:58;;;;;;;10.05;5.57;;;12.50;99.90;;;;;;5114381;28;20032;-82
2022/04/17 03:06:53;;;;;;;7.55;5.50;;;12.40;99.90;;;;;;5093806;28;20027;-83
2022/04/17 03:09:19;;;;;;;10.35;6.32;;;12.40;99.90;;;;;;5093593;28;20099;-82
2022/04/17 03:11:45;;;;;;;8.98;5.93;;;12.30;99.90;;;;;;5092139;28;20133;-82
2022/04/17 03:14:10;;;;;;;10.70;6.55;;;12.40;99.90;;;;;;5098619;28;20030;-82
2022/04/17 03:16:36;;;;;;;11.05;6.32;;;12.30;99.90;;;;;;5113364;28;20540;-82
2022/04/17 03:19:02;;;;;;;9.88;5.80;;;12.30;99.90;;;;;;5102086;28;20035;-82
2022/04/17 03:21:28;;;;;;;11.10;6.20;;;12.40;99.90;;;;;;5092520;28;20024;-82
2022/04/17 03:23:54;;;;;;;9.38;6.10;;;12.30;99.90;;;;;;5093425;28;20417;-83
2022/04/17 03:26:20;;;;;;;11.43;6.35;;;12.20;99.90;;;;;;5093139;28;20055;-82
2022/04/17 03:28:45;;;;;;;13.70;5.80;;;12.30;99.90;;;;;;5092082;28;20020;-82
2022/04/17 03:31:11;;;;;;;9.50;5.78;;;12.30;99.90;;;;;;5093130;28;20024;-83
2022/04/17 03:33:37;;;;;;;12.50;6.32;;;12.30;99.90;;;;;;5093048;28;20387;-82
2022/04/17 03:36:03;;;;;;;12.98;6.78;;;12.20;99.90;;;;;;5092793;28;20045;-83
2022/04/17 03:38:28;;;;;;;12.25;6.70;;;12.20;99.90;;;;;;5092845;28;20039;-83
2022/04/17 03:40:54;;;;;;;9.18;6.30;;;12.20;99.90;;;;;;5091708;28;20024;-83
2022/04/17 03:43:23;;;;;;;15.55;6.93;;;12.10;99.90;;;;;;5093184;28;20057;-82
2022/04/17 03:45:49;;;;;;;9.18;6.63;;;12.10;99.90;;;;;;5091500;28;20059;-82
2022/04/17 03:48:18;;;;;;;9.40;6.57;;;12.10;99.90;;;;;;5089977;28;20027;-82
2022/04/17 03:50:44;;;;;;;12.27;7.20;;;12.10;99.90;;;;;;5072439;28;20047;-83
2022/04/17 03:53:10;;;;;;;10.75;6.88;;;12.00;99.90;;;;;;5072821;28;20020;-83
2022/04/17 03:55:36;;;;;;;12.43;7.07;;;12.00;99.90;;;;;;5071555;28;20029;-82
2022/04/17 03:58:02;;;;;;;15.90;7.70;;;12.10;99.90;;;;;;5071489;28;20021;-83
2022/04/17 04:00:28;;;;;;;11.75;6.70;;;12.00;99.90;;;;;;5076840;28;20028;-82
2022/04/17 04:02:54;;;;;;;16.30;7.10;;;12.10;99.90;;;;;;5111648;28;20058;-82
2022/04/17 04:05:20;;;;;;;11.48;6.90;;;12.00;99.90;;;;;;5097862;28;20127;-82
2022/04/17 04:07:46;;;;;;;12.20;6.15;;;12.00;99.90;;;;;;5072241;28;20119;-82
2022/04/17 04:10:12;;;;;;;12.63;6.70;;;12.00;99.90;;;;;;5096312;28;20403;-83
2022/04/17 04:12:38;;;;;;;12.57;6.20;;;11.90;99.90;;;;;;5104732;28;20111;-83
2022/04/17 04:15:06;;;;;;;9.88;5.93;;;11.80;99.90;;;;;;5091126;28;20510;-82
2022/04/17 04:17:32;;;;;;;12.27;7.32;;;11.70;99.90;;;;;;5103603;28;20027;-82
2022/04/17 04:19:58;;;;;;;10.05;6.88;;;11.80;99.90;;;;;;5095550;28;20020;-83
2022/04/17 04:22:23;;;;;;;8.60;5.93;;;11.70;99.90;;;;;;5093343;28;20080;-82
2022/04/17 04:24:49;;;;;;;9.07;6.47;;;11.70;99.90;;;;;;5087008;28;20021;-83
2022/04/17 04:29:59;;;;;;;10.45;6.05;;;11.60;99.90;;;;;;5072436;28;20071;-83
2022/04/17 04:32:25;;;;;;;12.00;7.00;;;11.70;99.90;;;;;;5072377;28;20048;-83
2022/04/17 04:34:50;;;;;;;10.40;7.10;;;11.60;99.90;;;;;;5071030;28;20150;-83
2022/04/17 04:37:16;;;;;;;10.07;7.07;;;11.60;99.90;;;;;;5074369;28;20024;-83
2022/04/17 04:39:42;;;;;;;13.07;6.90;;;11.50;99.90;;;;;;5072496;28;20028;-83
2022/04/17 04:42:08;;;;;;;13.10;7.45;;;11.50;99.90;;;;;;5072246;28;20507;-83
2022/04/17 04:44:33;;;;;;;12.75;7.18;;;11.60;99.90;;;;;;5070627;28;20028;-83
2022/04/17 04:46:59;;;;;;;14.05;7.22;;;11.50;99.90;;;;;;5073467;28;20756;-82
2022/04/17 04:49:30;;;;;;;13.10;7.38;;;11.50;99.90;;;;;;5076351;28;20422;-83
2022/04/17 04:52:01;;;;;;;11.52;7.22;;;11.50;99.90;;;;;;5075914;28;20025;-83
2022/04/17 04:54:30;;;;;;;14.38;8.50;;;11.30;99.90;;;;;;5075980;28;20052;-83
2022/04/17 04:56:56;;;;;;;12.98;7.88;;;11.30;99.90;;;;;;5088007;28;20032;-83
2022/04/17 04:59:22;;;;;;;14.02;8.05;;;11.40;99.90;;;;;;5075774;28;20488;-83
2022/04/17 05:01:48;;;;;;;14.70;8.00;;;11.30;99.90;;;;;;5075364;28;20078;-82
2022/04/17 05:04:16;;;;;;;14.38;8.75;;;11.40;99.90;;;;;;5074246;28;20102;-83
2022/04/17 05:06:42;;;;;;;11.73;8.05;;;11.40;99.90;;;;;;5091267;28;20016;-83
2022/04/17 05:09:08;;;;;;;13.10;7.80;;;11.40;99.90;;;;;;5075762;28;20465;-83
2022/04/17 05:11:33;;;;;;;14.60;9.10;;;11.40;99.90;;;;;;5076114;28;20021;-83
2022/04/17 05:13:59;;;;;;;19.17;8.30;;;11.40;99.90;;;;;;5075387;28;20023;-83
2022/04/17 05:16:24;;;;;;;13.95;8.32;;;11.40;99.90;;;;;;5075364;28;20028;-83
2022/04/17 05:19:06;;;;;;;11.88;8.20;;;11.40;99.90;;;;;;5074195;28;20532;-83
2022/04/17 05:21:36;;;;;;;13.23;8.68;;;11.40;99.90;;;;;;5075727;28;20477;-83
2022/04/17 05:24:02;;;;;;;15.18;8.85;;;11.40;99.90;;;;;;5074101;28;20025;-82
2022/04/17 05:26:27;;;;;;;17.58;8.38;;;11.40;99.90;;;;;;5074054;28;20077;-83
2022/04/17 05:28:53;;;;;;;16.50;9.63;;;11.40;99.90;;;;;;5081328;28;20027;-82
2022/04/17 05:31:18;;;;;;;11.65;8.25;;;11.40;99.90;;;;;;5095597;28;20392;-83
2022/04/17 05:33:44;;;;;;;12.88;8.80;;;11.50;99.90;;;;;;5094153;28;20035;-85
2022/04/17 05:36:10;;;;;;;16.00;8.98;;;11.50;99.90;;;;;;5095703;28;20039;-85
2022/04/17 05:38:35;;;;;;;14.48;8.68;;;11.60;99.90;;;;;;5093986;28;20033;-85
2022/04/17 05:41:01;;;;;;;13.45;9.10;;;11.50;99.90;;;;;;5100562;28;20403;-83
2022/04/17 05:43:26;;;;;;;12.82;8.85;;;11.50;99.90;;;;;;5115844;28;20028;-83
2022/04/17 05:45:52;;;;;;;13.30;7.85;;;11.50;99.90;;;;;;5098242;27;20161;-83
2022/04/17 05:48:18;;;;;;;13.88;8.60;;;11.60;99.90;;;;;;5095234;28;20070;-83
2022/04/17 05:50:44;;;;;;;18.50;9.48;;;11.50;99.90;;;;;;5091235;28;20031;-83
2022/04/17 05:53:11;;;;;;;10.25;8.23;;;11.60;99.90;;;;;;5074612;28;20078;-83
2022/04/17 05:55:37;;;;;;;12.88;8.55;;;11.70;99.90;;;;;;5074566;28;20041;-83
2022/04/17 05:58:02;;;;;;;13.23;8.52;;;11.60;99.90;;;;;;5073280;28;20035;-83
2022/04/17 06:00:28;;;;;;;13.63;8.65;;;11.70;99.90;;;;;;5073475;28;20039;-83
2022/04/17 06:02:54;;;;;;;13.73;9.50;;;11.80;99.90;;;;;;5074578;28;20082;-83
2022/04/17 06:05:20;;;;;;;15.23;8.90;;;11.90;99.90;;;;;;5074260;28;20162;-82
2022/04/17 06:07:45;;;;;;;13.70;8.63;;;12.00;99.90;;;;;;5074691;28;20035;-83
2022/04/17 06:10:13;;;;;;;15.35;9.20;;;12.20;99.90;;;;;;5073044;28;20464;-82
2022/04/17 06:12:40;;;;;;;11.70;7.95;;;12.40;99.90;;;;;;5074603;28;20021;-83
2022/04/17 06:15:07;;;;;;;13.63;9.02;;;12.50;99.90;;;;;;5074061;28;20079;-82
2022/04/17 06:17:38;;;;;;;17.67;8.90;;;12.50;99.90;;;;;;5073305;28;20452;-83
2022/04/17 06:20:09;;;;;;;13.27;8.57;;;12.60;99.90;;;;;;5073065;28;20400;-83
2022/04/17 06:22:35;;;;;;;12.45;8.90;;;12.90;99.90;;;;;;5072979;28;20055;-83
2022/04/17 06:25:07;;;;;;;16.45;8.40;;;13.00;99.90;;;;;;5072567;28;20025;-83
2022/04/17 06:27:45;;;;;;;14.95;8.75;;;13.30;99.90;;;;;;5087913;28;20031;-83
2022/04/17 06:30:13;;;;;;;12.68;8.10;;;13.50;99.90;;;;;;5092649;28;20039;-83
2022/04/17 06:32:40;;;;;;;12.30;7.78;;;13.50;99.90;;;;;;5094468;28;20027;-83
2022/04/17 06:35:07;;;;;;;15.27;8.02;;;13.80;99.90;;;;;;5092972;28;20028;-83
2022/04/17 06:37:52;;;;;;;12.73;7.90;;;13.80;99.90;;;;;;5094025;28;20055;-83
2022/04/17 06:40:25;;;;;;;17.30;8.15;;;13.90;99.90;;;;;;5095256;28;20020;-83
2022/04/17 06:42:54;;;;;;;10.40;7.18;;;13.80;99.90;;;;;;5094071;28;20039;-83
2022/04/17 06:45:21;;;;;;;14.20;7.90;;;13.60;99.90;;;;;;5094037;28;20035;-83
2022/04/17 06:47:47;;;;;;;11.70;7.70;;;13.80;99.90;;;;;;5094210;28;20027;-83
2022/04/17 06:50:14;;;;;;;15.52;8.13;;;14.00;99.90;;;;;;5111010;28;20027;-83
2022/04/17 06:52:40;;;;;;;12.38;8.13;;;14.20;99.90;;;;;;5114424;28;20391;-83
2022/04/17 06:55:11;;;;;;;14.30;8.77;;;13.80;99.90;;;;;;5112556;28;20034;-83
2022/04/17 06:57:41;;;;;;;11.30;8.00;;;13.40;99.90;;;;;;5114177;28;20047;-83
2022/04/17 07:00:09;;;;;;;16.67;8.32;;;13.60;99.90;;;;;;5113988;28;20110;-83
2022/04/17 07:02:35;;;;;;;13.50;8.50;;;13.40;99.90;;;;;;5102722;28;20020;-83
2022/04/17 07:05:01;;;;;;;10.45;8.15;;;13.50;99.90;;;;;;5090075;28;20048;-82
2022/04/17 07:07:27;;;;;;;13.98;7.18;;;13.60;99.90;;;;;;5078962;28;20476;-83
2022/04/17 07:09:54;;;;;;;12.55;8.32;;;13.60;99.90;;;;;;5071086;28;20500;-83
2022/04/17 07:12:20;;;;;;;10.15;8.00;;;13.70;99.90;;;;;;5073227;28;20606;-83
2022/04/17 07:14:47;;;;;;;13.05;8.65;;;13.70;99.90;;;;;;5091525;28;20077;-78
2022/04/17 07:17:13;;;;;;;15.50;8.10;;;13.60;99.90;;;;;;5091953;28;20031;-85
2022/04/17 07:19:39;;;;;;;12.95;8.00;;;13.60;99.90;;;;;;5092736;28;20031;-85
2022/04/17 07:22:04;;;;;;;12.65;8.10;;;13.50;99.90;;;;;;5093413;28;20035;-86
2022/04/17 07:24:30;;;;;;;15.32;7.97;;;13.50;99.90;;;;;;5092963;28;20101;-84
2022/04/17 07:26:56;;;;;;;11.50;8.18;;;13.60;99.90;;;;;;5093459;28;20036;-85
2022/04/17 07:29:25;;;;;;;13.02;8.48;;;13.70;99.90;;;;;;5093278;28;20112;-85
2022/04/17 07:31:51;;;;;;;15.18;7.90;;;13.70;99.90;;;;;;5072912;28;20033;-85
2022/04/17 07:34:20;;;;;;;12.98;7.72;;;13.60;99.90;;;;;;5098320;28;20027;-86
2022/04/17 07:36:54;;;;;;;13.38;7.72;;;13.60;99.90;;;;;;5098146;28;20012;-88
2022/04/17 07:39:22;;;;;;;13.80;8.15;;;13.70;99.90;;;;;;5091912;28;20016;-84
2022/04/17 07:41:48;;;;;;;10.35;7.78;;;13.70;99.90;;;;;;5093653;28;20366;-85
2022/04/17 07:44:14;;;;;;;14.68;7.28;;;13.90;99.90;;;;;;5096936;28;20430;-84
2022/04/17 07:46:41;;;;;;;11.13;7.72;;;14.00;99.90;;;;;;5093093;28;20012;-83
2022/04/17 07:49:07;;;;;;;16.80;8.40;;;14.00;99.90;;;;;;5073071;28;20665;-83
2022/04/17 07:51:33;;;;;;;13.18;7.55;;;14.10;99.90;;;;;;5099446;28;20036;-84
2022/04/17 07:54:00;;;;;;;15.40;7.55;;;14.40;99.90;;;;;;5109992;28;20026;-79
2022/04/17 07:56:25;;;;;;;9.05;7.28;;;14.30;99.90;;;;;;5104624;28;20046;-91
2022/04/17 07:58:51;;;;;;;11.90;6.80;;;14.60;99.90;;;;;;5108709;28;20028;-92
2022/04/17 08:01:17;;;;;;;11.77;7.13;;;15.10;99.90;;;;;;5104460;28;20016;-77
2022/04/17 08:06:10;;;;;;;10.43;6.28;;;15.20;99.90;;;;;;5099103;28;20027;-86
2022/04/17 08:08:37;;;;;;;11.18;5.95;;;15.90;99.90;;;;;;5101472;28;20030;-81
2022/04/17 08:11:04;;;;;;;8.00;5.78;;;16.30;99.90;;;;;;5103931;28;20046;-90
2022/04/17 08:13:29;;;;;;;11.13;6.30;;;16.60;99.90;;;;;;5100958;28;20046;-79
2022/04/17 08:15:55;;;;;;;11.68;6.30;;;16.30;99.90;;;;;;5097850;28;20024;-87
2022/04/17 08:18:21;;;;;;;9.13;6.75;;;16.60;99.90;;;;;;5102593;28;20030;-78
2022/04/17 08:20:47;;;;;;;11.52;6.15;;;16.90;99.90;;;;;;5102506;28;20015;-81
2022/04/17 08:23:12;;;;;;;6.57;5.15;;;17.10;99.90;;;;;;5100968;28;20016;-85
2022/04/17 08:25:38;;;;;;;9.48;5.70;;;17.20;99.90;;;;;;5111618;28;20461;-87
2022/04/17 08:28:05;;;;;;;11.18;5.68;;;17.40;99.90;;;;;;5104421;28;20030;-86
2022/04/17 08:30:32;;;;;;;13.82;6.78;;;17.30;99.90;;;;;;5097639;28;20103;-91
2022/04/17 08:33:03;;;;;;;8.98;5.18;;;17.00;99.90;;;;;;5116939;28;20019;-91
2022/04/17 08:35:30;;;;;;;9.68;6.10;;;17.30;99.90;;;;;;5115544;28;20116;-86
2022/04/17 08:38:00;;;;;;;10.05;6.45;;;17.20;99.90;;;;;;5105573;28;20470;-85
2022/04/17 08:40:26;;;;;;;8.57;5.35;;;17.00;99.90;;;;;;5100739;28;20107;-85
2022/04/17 08:42:53;;;;;;;14.65;6.75;;;18.30;99.90;;;;;;5095581;28;20059;-87
2022/04/17 08:45:19;;;;;;;9.05;5.20;;;18.40;99.90;;;;;;5097224;28;20403;-83
2022/04/17 08:47:45;;;;;;;7.13;4.80;;;18.00;99.90;;;;;;5096754;28;20085;-88
2022/04/17 08:50:13;;;;;;;9.85;4.80;;;18.50;99.90;;;;;;5095978;28;20421;-87
2022/04/17 08:52:41;;;;;;;7.40;4.38;;;18.10;99.90;;;;;;5094818;28;20046;-92
2022/04/17 08:55:07;;;;;;;7.38;4.72;;;18.40;99.90;;;;;;5096766;28;20573;-84
2022/04/17 08:57:33;;;;;;;8.15;5.10;;;18.60;99.90;;;;;;5096034;28;20043;-84
2022/04/17 08:59:59;;;;;;;9.18;5.50;;;18.90;99.90;;;;;;5096610;28;20031;-91
2022/04/17 09:02:25;;;;;;;7.47;5.05;;;19.10;99.90;;;;;;5095563;28;20491;-86
2022/04/17 09:04:51;;;;;;;7.43;4.88;;;18.70;99.90;;;;;;5092442;28;20048;-89
2022/04/17 09:07:16;;;;;;;11.43;4.88;;;19.10;99.90;;;;;;5087780;28;20035;-84
2022/04/17 09:09:50;;;;;;;8.57;4.40;;;19.60;99.90;;;;;;5115429;28;20023;-85
2022/04/17 09:12:23;;;;;;;6.28;4.57;;;19.60;99.90;;;;;;5102379;28;20087;-83
2022/04/17 09:14:49;;;;;;;5.82;3.65;;;19.70;99.90;;;;;;5093327;28;20027;-83
2022/04/17 09:17:24;;;;;;;10.48;4.30;;;20.20;99.70;;;;;;5099582;28;20448;-84
2022/04/17 09:19:50;;;;;;;7.07;4.00;;;20.00;99.10;;;;;;5098769;28;20030;-93
2022/04/17 09:22:15;;;;;;;11.73;4.75;;;19.80;99.50;;;;;;5110954;28;20394;-86
2022/04/17 09:24:42;;;;;;;6.40;4.38;;;20.00;98.60;;;;;;5116535;28;20505;-93
2022/04/17 09:27:10;;;;;;;10.15;3.92;;;19.70;99.10;;;;;;5110819;28;20024;-89
2022/04/17 09:29:37;;;;;;;8.07;4.20;;;20.00;99.30;;;;;;5095632;28;20024;-87
2022/04/17 09:32:04;;;;;;;10.98;4.60;;;19.80;97.80;;;;;;5098760;28;20023;-91
2022/04/17 09:34:58;;;;;;;11.00;5.20;;;19.50;99.00;;;;;;5114543;28;20146;-87
2022/04/17 09:37:28;;;;;;;6.53;3.85;;;19.70;97.80;;;;;;5099843;28;20031;-88
2022/04/17 09:40:06;;;;;;;6.38;3.78;;;19.50;97.40;;;;;;5099393;28;20027;-88
2022/04/17 09:42:32;;;;;;;6.22;3.90;;;20.10;98.40;;;;;;5097549;28;20028;-89
2022/04/17 09:44:58;;;;;;;8.82;3.53;;;20.20;95.40;;;;;;5094131;28;20030;-88
2022/04/17 09:47:26;;;;;;;5.00;3.38;;;19.90;95.30;;;;;;5095795;28;20053;-84
2022/04/17 09:50:04;;;;;;;19.27;3.53;;;20.20;94.00;;;;;;5094229;28;20387;-84
2022/04/17 09:52:33;;;;;;;7.07;3.22;;;20.30;94.20;;;;;;5099904;28;20413;-84
2022/04/17 09:55:00;;;;;;;5.18;2.92;;;20.50;93.10;;;;;;5107965;28;20027;-84
2022/04/17 09:57:26;;;;;;;8.50;3.47;;;20.60;93.20;;;;;;5113961;28;20031;-84
2022/04/17 09:59:53;;;;;;;7.30;2.80;;;20.30;93.60;;;;;;5105381;28;20103;-84
2022/04/17 10:02:20;;;;;;;11.98;3.50;;;20.80;93.80;;;;;;5093432;28;20055;-84
2022/04/17 10:04:47;;;;;;;6.13;3.17;;;21.40;93.00;;;;;;5101587;28;20044;-82
2022/04/17 10:07:14;;;;;;;7.93;2.88;;;21.20;93.00;;;;;;5086055;28;20017;-88
2022/04/17 10:09:42;;;;;;;5.32;3.00;;;21.40;91.80;;;;;;5074758;28;20020;-83
2022/04/17 10:12:07;;;;;;;7.32;3.10;;;21.10;91.50;;;;;;5095436;28;20110;-83
2022/04/17 10:14:36;;;;;;;7.25;2.97;;;21.40;93.00;;;;;;5115362;28;20589;-84
2022/04/17 10:17:06;;;;;;;3.95;2.65;;;20.90;92.50;;;;;;5113382;28;20031;-83
2022/04/17 10:19:34;;;;;;;3.97;2.50;;;21.10;91.20;;;;;;5115440;28;20471;-82
2022/04/17 10:22:03;;;;;;;4.57;2.60;;;21.40;89.50;;;;;;5114495;28;20026;-83
2022/04/17 10:24:31;;;;;;;4.82;3.03;;;21.40;89.20;;;;;;5090846;28;20027;-83
2022/04/17 10:26:59;;;;;;;6.55;3.00;;;21.50;90.00;;;;;;5094502;28;20364;-83
2022/04/17 10:29:42;;;;;;;4.97;3.15;;;21.40;90.50;;;;;;5114493;28;20055;-83
2022/04/17 10:32:15;;;;;;;6.13;3.47;;;21.10;90.60;;;;;;5110624;28;20478;-83
2022/04/17 10:35:10;;;;;;;7.78;3.22;;;21.60;90.40;;;;;;5114691;28;20019;-83
2022/04/17 10:37:47;;;;;;;4.57;3.00;;;21.30;90.30;;;;;;5112036;28;20050;-83
2022/04/17 10:40:13;;;;;;;7.72;3.50;;;21.50;90.10;;;;;;5092951;28;20035;-84
2022/04/17 10:42:56;;;;;;;8.52;2.95;;;21.50;88.40;;;;;;5094366;28;20023;-83
2022/04/17 10:45:22;;;;;;;5.65;2.78;;;21.80;87.10;;;;;;5092678;28;20016;-83
2022/04/17 10:48:09;;;;;;;3.88;2.97;;;21.70;85.70;;;;;;5089020;28;20051;-83
2022/04/17 10:50:47;;;;;;;5.15;2.50;;;21.80;85.70;;;;;;5106161;28;20066;-78
2022/04/17 10:53:27;;;;;;;13.13;2.60;;;21.80;81.60;;;;;;5086164;28;20062;-85
2022/04/17 10:56:15;;;;;;;3.75;2.30;;;21.50;82.60;;;;;;5104198;28;20024;-82
2022/04/17 10:58:50;;;;;;;4.82;2.50;;;21.70;82.60;;;;;;5074765;28;20546;-86
2022/04/17 11:01:16;;;;;;;4.35;2.78;;;22.30;81.00;;;;;;5073439;28;20492;-81
2022/04/17 11:03:55;;;;;;;4.25;2.55;;;22.20;79.90;;;;;;5104349;28;20039;-81
2022/04/17 11:06:31;;;;;;;6.75;2.70;;;22.40;79.60;;;;;;5097291;27;20020;-81
2022/04/17 11:09:24;;;;;;;4.57;2.60;;;21.70;80.30;;;;;;5093786;28;20035;-80
2022/04/17 11:11:51;;;;;;;5.65;2.85;;;21.80;81.20;;;;;;5101301;28;20033;-83
2022/04/17 11:14:21;;;;;;;6.68;2.35;;;22.20;77.80;;;;;;5093460;28;20031;-79
2022/04/17 11:16:58;;;;;;;7.07;2.80;;;21.80;76.50;;;;;;5093517;28;20099;-83
2022/04/17 11:19:29;;;;;;;4.30;2.10;;;22.10;75.40;;;;;;5092715;28;20024;-77
2022/04/17 11:22:01;;;;;;;5.13;1.80;;;22.20;74.00;;;;;;5100885;28;20024;-79
2022/04/17 11:24:30;;;;;;;4.40;1.70;;;22.10;70.80;;;;;;5089636;28;20335;-78
2022/04/17 11:26:55;;;;;;;3.67;2.05;;;22.00;71.90;;;;;;5106019;28;20020;-78
2022/04/17 11:29:35;;;;;;;4.28;2.08;;;22.20;72.60;;;;;;5103358;28;20027;-80
2022/04/17 11:32:02;;;;;;;3.28;2.15;;;22.30;73.70;;;;;;5096389;28;20024;-77
2022/04/17 11:34:52;;;;;;;8.63;2.60;;;22.50;70.90;;;;;;5093777;28;20024;-78
2022/04/17 11:37:19;;;;;;;4.78;2.53;;;22.20;71.00;;;;;;5106103;28;20032;-78
2022/04/17 11:39:45;;;;;;;3.15;1.88;;;22.10;70.30;;;;;;5104114;28;20024;-77
2022/04/17 11:42:11;;;;;;;3.30;1.75;;;22.30;69.50;;;;;;5103415;28;20081;-77
2022/04/17 11:44:40;;;;;;;5.57;1.92;;;22.40;69.50;;;;;;5101331;28;20020;-77
2022/04/17 11:47:07;;;;;;;4.68;2.63;;;22.60;69.50;;;;;;5108016;28;20016;-79
2022/04/17 11:49:45;;;;;;;3.60;1.77;;;22.70;69.30;;;;;;5109064;28;20537;-78
2022/04/17 11:52:21;;;;;;;3.45;2.15;;;22.40;68.40;;;;;;5106812;28;20411;-78
2022/04/17 11:54:48;;;;;;;2.42;1.70;;;22.30;67.30;;;;;;5095120;28;20023;-78
2022/04/17 11:57:18;;;;;;;4.70;1.95;;;22.10;68.70;;;;;;5093833;28;20058;-78
2022/04/17 11:59:55;;;;;;;5.38;1.45;;;22.50;68.00;;;;;;5092324;28;20257;-77
2022/04/17 12:02:22;;;;;;;4.35;1.50;;;22.80;65.90;;;;;;5091851;28;20030;-78
2022/04/17 12:05:10;;;;;;;5.45;1.67;;;22.70;68.00;;;;;;5102112;28;20145;-78
2022/04/17 12:07:37;;;;;;;8.05;2.17;;;22.60;67.60;;;;;;5085499;28;20059;-79
2022/04/17 12:10:04;;;;;;;5.50;1.73;;;22.60;66.90;;;;;;5107661;28;20500;-78
2022/04/17 12:12:39;;;;;;;4.43;2.13;;;22.70;66.70;;;;;;5092180;28;20444;-77
2022/04/17 12:15:05;;;;;;;11.85;1.83;;;22.50;66.90;;;;;;5094218;28;20028;-78
2022/04/17 12:17:33;;;;;;;2.20;1.42;;;22.30;65.50;;;;;;5093471;28;20032;-78
2022/04/17 12:20:00;;;;;;;2.67;1.55;;;22.20;66.30;;;;;;5106116;28;20019;-78
2022/04/17 12:22:27;;;;;;;5.38;1.70;;;22.20;66.30;;;;;;5091805;28;20016;-78
2022/04/17 12:24:53;;;;;;;2.47;1.50;;;22.20;66.20;;;;;;5084776;28;20028;-78
2022/04/17 12:27:20;;;;;;;2.20;1.10;;;22.40;65.40;;;;;;5088973;28;20052;-79
2022/04/17 12:29:56;;;;;;;14.57;2.22;;;22.40;64.90;;;;;;5090968;28;20023;-79
2022/04/17 12:32:24;;;;;;;20.88;1.65;;;22.50;64.70;;;;;;5089789;28;20073;-78
2022/04/17 12:35:01;;;;;;;12.25;1.42;;;22.80;65.00;;;;;;5096946;28;20027;-78
2022/04/17 12:37:33;;;;;;;4.65;1.63;;;22.70;63.10;;;;;;5091833;28;20070;-78
2022/04/17 12:40:13;;;;;;;3.10;1.63;;;22.60;64.40;;;;;;5080420;28;20028;-77
2022/04/17 12:42:40;;;;;;;7.28;1.58;;;22.90;64.80;;;;;;5071979;28;20029;-77
2022/04/17 12:45:08;;;;;;;3.67;1.77;;;23.10;65.80;;;;;;5088960;28;20369;-77
2022/04/17 12:47:36;;;;;;;6.72;1.80;;;23.20;64.80;;;;;;5096089;28;20028;-77
2022/04/17 12:50:11;;;;;;;7.05;1.80;;;22.70;63.90;;;;;;5089439;28;20091;-77
2022/04/17 12:52:36;;;;;;;5.30;1.60;;;22.50;64.20;;;;;;5090127;28;20107;-77
2022/04/17 12:55:13;;;;;;;3.80;1.90;;;22.40;65.10;;;;;;5084405;28;20111;-77
2022/04/17 12:57:39;;;;;;;2.65;1.77;;;22.70;64.70;;;;;;5078320;28;20028;-77
2022/04/17 13:00:15;;;;;;;2.67;1.40;;;22.70;64.50;;;;;;5072383;28;20032;-77
2022/04/17 13:02:42;;;;;;;1.52;1.10;;;22.40;64.40;;;;;;5077065;28;20496;-77
2022/04/17 13:05:09;;;;;;;2.58;1.40;;;22.60;64.00;;;;;;5091392;28;20412;-77